sensor_id;sensor_type;location;lat;lon;timestamp;P1;durP1;ratioP1;P2;durP2;ratioP2
14847;SDS011;7516;43.570;1.448;2023-07-20T00:02:12;7.65;;;4.60;;
14847;SDS011;7516;43.570;1.448;2023-07-20T00:04:40;9.90;;;5.03;;
14847;SDS011;7516;43.570;1.448;2023-07-20T00:07:07;8.77;;;4.72;;
14847;SDS011;7516;43.570;1.448;2023-07-20T00:09:35;7.68;;;5.00;;
14847;SDS011;7516;43.570;1.448;2023-07-20T00:12:04;6.72;;;4.57;;
14847;SDS011;7516;43.570;1.448;2023-07-20T00:14:32;9.93;;;5.10;;
14847;SDS011;7516;43.570;1.448;2023-07-20T00:16:59;9.60;;;5.05;;
14847;SDS011;7516;43.570;1.448;2023-07-20T00:19:28;6.40;;;4.47;;
14847;SDS011;7516;43.570;1.448;2023-07-20T00:21:57;7.50;;;4.57;;
14847;SDS011;7516;43.570;1.448;2023-07-20T00:24:24;7.97;;;4.90;;
14847;SDS011;7516;43.570;1.448;2023-07-20T00:26:52;6.93;;;4.47;;
14847;SDS011;7516;43.570;1.448;2023-07-20T00:29:21;9.02;;;5.03;;
14847;SDS011;7516;43.570;1.448;2023-07-20T00:31:48;6.38;;;4.93;;
14847;SDS011;7516;43.570;1.448;2023-07-20T00:34:16;7.60;;;5.03;;
14847;SDS011;7516;43.570;1.448;2023-07-20T00:36:43;7.90;;;4.93;;
14847;SDS011;7516;43.570;1.448;2023-07-20T00:39:11;7.65;;;5.03;;
14847;SDS011;7516;43.570;1.448;2023-07-20T00:41:38;6.97;;;5.05;;
14847;SDS011;7516;43.570;1.448;2023-07-20T00:44:06;8.20;;;5.13;;
14847;SDS011;7516;43.570;1.448;2023-07-20T00:46:34;10.05;;;5.30;;
14847;SDS011;7516;43.570;1.448;2023-07-20T00:49:02;9.63;;;4.57;;
14847;SDS011;7516;43.570;1.448;2023-07-20T00:51:31;8.48;;;5.00;;
14847;SDS011;7516;43.570;1.448;2023-07-20T00:53:59;6.53;;;4.35;;
14847;SDS011;7516;43.570;1.448;2023-07-20T00:56:27;6.18;;;4.63;;
14847;SDS011;7516;43.570;1.448;2023-07-20T00:58:55;7.75;;;4.93;;
14847;SDS011;7516;43.570;1.448;2023-07-20T01:01:23;7.38;;;4.82;;
14847;SDS011;7516;43.570;1.448;2023-07-20T01:03:52;5.95;;;4.65;;
14847;SDS011;7516;43.570;1.448;2023-07-20T01:06:23;7.93;;;5.20;;
14847;SDS011;7516;43.570;1.448;2023-07-20T01:09:09;6.80;;;4.40;;
14847;SDS011;7516;43.570;1.448;2023-07-20T01:11:43;8.10;;;4.30;;
14847;SDS011;7516;43.570;1.448;2023-07-20T01:14:15;5.53;;;4.40;;
14847;SDS011;7516;43.570;1.448;2023-07-20T01:16:44;6.57;;;3.90;;
14847;SDS011;7516;43.570;1.448;2023-07-20T01:19:15;8.85;;;4.65;;
14847;SDS011;7516;43.570;1.448;2023-07-20T01:21:45;6.50;;;4.32;;
14847;SDS011;7516;43.570;1.448;2023-07-20T01:24:31;7.05;;;4.70;;
14847;SDS011;7516;43.570;1.448;2023-07-20T01:30:14;6.15;;;4.65;;
14847;SDS011;7516;43.570;1.448;2023-07-20T01:32:53;7.50;;;4.38;;
14847;SDS011;7516;43.570;1.448;2023-07-20T01:35:23;7.60;;;4.28;;
14847;SDS011;7516;43.570;1.448;2023-07-20T01:37:53;5.72;;;4.20;;
14847;SDS011;7516;43.570;1.448;2023-07-20T01:40:21;7.10;;;4.72;;
14847;SDS011;7516;43.570;1.448;2023-07-20T01:42:50;6.30;;;4.15;;
14847;SDS011;7516;43.570;1.448;2023-07-20T01:45:18;6.95;;;5.03;;
14847;SDS011;7516;43.570;1.448;2023-07-20T01:47:46;8.57;;;4.75;;
14847;SDS011;7516;43.570;1.448;2023-07-20T01:50:15;8.05;;;4.43;;
14847;SDS011;7516;43.570;1.448;2023-07-20T01:52:42;8.23;;;4.78;;
14847;SDS011;7516;43.570;1.448;2023-07-20T01:55:10;4.97;;;4.10;;
14847;SDS011;7516;43.570;1.448;2023-07-20T01:57:37;8.80;;;4.57;;
14847;SDS011;7516;43.570;1.448;2023-07-20T02:00:05;7.55;;;4.43;;
14847;SDS011;7516;43.570;1.448;2023-07-20T02:02:34;8.10;;;4.90;;
14847;SDS011;7516;43.570;1.448;2023-07-20T02:05:01;7.50;;;4.63;;
14847;SDS011;7516;43.570;1.448;2023-07-20T02:07:30;8.65;;;4.63;;
14847;SDS011;7516;43.570;1.448;2023-07-20T02:09:57;7.32;;;4.55;;
14847;SDS011;7516;43.570;1.448;2023-07-20T02:12:25;7.68;;;4.30;;
14847;SDS011;7516;43.570;1.448;2023-07-20T02:14:52;5.97;;;4.60;;
14847;SDS011;7516;43.570;1.448;2023-07-20T02:17:20;8.48;;;4.68;;
14847;SDS011;7516;43.570;1.448;2023-07-20T02:19:50;8.43;;;4.28;;
14847;SDS011;7516;43.570;1.448;2023-07-20T02:22:19;11.60;;;4.53;;
14847;SDS011;7516;43.570;1.448;2023-07-20T02:24:48;6.40;;;4.60;;
14847;SDS011;7516;43.570;1.448;2023-07-20T02:27:15;6.70;;;4.35;;
14847;SDS011;7516;43.570;1.448;2023-07-20T02:29:43;6.05;;;4.50;;
14847;SDS011;7516;43.570;1.448;2023-07-20T02:32:10;6.50;;;4.20;;
14847;SDS011;7516;43.570;1.448;2023-07-20T02:34:38;7.60;;;4.53;;
14847;SDS011;7516;43.570;1.448;2023-07-20T02:37:05;7.60;;;4.30;;
14847;SDS011;7516;43.570;1.448;2023-07-20T02:39:33;7.97;;;4.63;;
14847;SDS011;7516;43.570;1.448;2023-07-20T02:42:02;6.55;;;4.47;;
14847;SDS011;7516;43.570;1.448;2023-07-20T02:44:30;7.25;;;4.43;;
14847;SDS011;7516;43.570;1.448;2023-07-20T02:46:58;6.78;;;4.70;;
14847;SDS011;7516;43.570;1.448;2023-07-20T02:49:25;6.70;;;4.18;;
14847;SDS011;7516;43.570;1.448;2023-07-20T02:51:53;7.38;;;4.43;;
14847;SDS011;7516;43.570;1.448;2023-07-20T02:54:20;5.95;;;4.18;;
14847;SDS011;7516;43.570;1.448;2023-07-20T02:56:48;5.70;;;4.35;;
14847;SDS011;7516;43.570;1.448;2023-07-20T02:59:17;7.07;;;4.55;;
14847;SDS011;7516;43.570;1.448;2023-07-20T03:01:44;7.10;;;4.75;;
14847;SDS011;7516;43.570;1.448;2023-07-20T03:04:12;6.05;;;4.75;;
14847;SDS011;7516;43.570;1.448;2023-07-20T03:06:39;6.85;;;4.40;;
14847;SDS011;7516;43.570;1.448;2023-07-20T03:09:07;6.70;;;4.60;;
14847;SDS011;7516;43.570;1.448;2023-07-20T03:11:35;9.05;;;4.45;;
14847;SDS011;7516;43.570;1.448;2023-07-20T03:14:02;6.20;;;4.50;;
14847;SDS011;7516;43.570;1.448;2023-07-20T03:16:31;6.35;;;4.68;;
14847;SDS011;7516;43.570;1.448;2023-07-20T03:18:59;8.60;;;5.13;;
14847;SDS011;7516;43.570;1.448;2023-07-20T03:21:26;8.23;;;4.72;;
14847;SDS011;7516;43.570;1.448;2023-07-20T03:23:54;7.95;;;4.18;;
14847;SDS011;7516;43.570;1.448;2023-07-20T03:26:22;6.93;;;4.70;;
14847;SDS011;7516;43.570;1.448;2023-07-20T03:28:49;5.97;;;4.28;;
14847;SDS011;7516;43.570;1.448;2023-07-20T03:31:17;6.18;;;4.38;;
14847;SDS011;7516;43.570;1.448;2023-07-20T03:33:45;6.80;;;4.70;;
14847;SDS011;7516;43.570;1.448;2023-07-20T03:36:13;7.72;;;4.43;;
14847;SDS011;7516;43.570;1.448;2023-07-20T03:38:40;5.65;;;4.10;;
14847;SDS011;7516;43.570;1.448;2023-07-20T03:41:08;7.97;;;4.38;;
14847;SDS011;7516;43.570;1.448;2023-07-20T03:43:37;5.40;;;3.78;;
14847;SDS011;7516;43.570;1.448;2023-07-20T03:46:04;8.18;;;4.68;;
14847;SDS011;7516;43.570;1.448;2023-07-20T03:48:32;6.75;;;4.72;;
14847;SDS011;7516;43.570;1.448;2023-07-20T03:51:01;6.32;;;4.30;;
14847;SDS011;7516;43.570;1.448;2023-07-20T03:53:29;7.53;;;4.32;;
14847;SDS011;7516;43.570;1.448;2023-07-20T03:55:57;7.32;;;4.90;;
14847;SDS011;7516;43.570;1.448;2023-07-20T03:58:24;5.93;;;4.70;;
14847;SDS011;7516;43.570;1.448;2023-07-20T04:00:52;8.90;;;4.82;;
14847;SDS011;7516;43.570;1.448;2023-07-20T04:03:19;6.20;;;4.53;;
14847;SDS011;7516;43.570;1.448;2023-07-20T04:05:47;8.25;;;4.30;;
14847;SDS011;7516;43.570;1.448;2023-07-20T04:08:17;7.28;;;4.70;;
14847;SDS011;7516;43.570;1.448;2023-07-20T04:10:44;6.80;;;4.43;;
14847;SDS011;7516;43.570;1.448;2023-07-20T04:13:12;9.50;;;4.97;;
14847;SDS011;7516;43.570;1.448;2023-07-20T04:15:39;7.00;;;4.55;;
14847;SDS011;7516;43.570;1.448;2023-07-20T04:18:07;7.35;;;5.13;;
14847;SDS011;7516;43.570;1.448;2023-07-20T04:20:34;6.57;;;4.30;;
14847;SDS011;7516;43.570;1.448;2023-07-20T04:23:01;7.88;;;4.13;;
14847;SDS011;7516;43.570;1.448;2023-07-20T04:25:30;8.38;;;5.20;;
14847;SDS011;7516;43.570;1.448;2023-07-20T04:28:04;7.38;;;4.65;;
14847;SDS011;7516;43.570;1.448;2023-07-20T04:30:34;9.02;;;5.35;;
14847;SDS011;7516;43.570;1.448;2023-07-20T04:33:02;8.30;;;4.88;;
14847;SDS011;7516;43.570;1.448;2023-07-20T04:35:45;7.05;;;4.63;;
14847;SDS011;7516;43.570;1.448;2023-07-20T04:38:15;7.78;;;4.82;;
14847;SDS011;7516;43.570;1.448;2023-07-20T04:40:44;6.88;;;4.55;;
14847;SDS011;7516;43.570;1.448;2023-07-20T04:43:13;7.30;;;4.88;;
14847;SDS011;7516;43.570;1.448;2023-07-20T04:45:40;7.60;;;4.68;;
14847;SDS011;7516;43.570;1.448;2023-07-20T04:48:09;7.80;;;4.15;;
14847;SDS011;7516;43.570;1.448;2023-07-20T04:50:37;6.88;;;4.60;;
14847;SDS011;7516;43.570;1.448;2023-07-20T04:53:06;10.23;;;4.65;;
14847;SDS011;7516;43.570;1.448;2023-07-20T04:55:35;7.63;;;5.05;;
14847;SDS011;7516;43.570;1.448;2023-07-20T04:58:04;9.63;;;4.80;;
14847;SDS011;7516;43.570;1.448;2023-07-20T05:00:32;7.20;;;4.80;;
14847;SDS011;7516;43.570;1.448;2023-07-20T05:03:00;9.18;;;4.65;;
14847;SDS011;7516;43.570;1.448;2023-07-20T05:05:30;7.18;;;4.50;;
14847;SDS011;7516;43.570;1.448;2023-07-20T05:07:58;8.80;;;5.07;;
14847;SDS011;7516;43.570;1.448;2023-07-20T05:10:25;7.47;;;4.90;;
14847;SDS011;7516;43.570;1.448;2023-07-20T05:12:53;7.78;;;4.75;;
14847;SDS011;7516;43.570;1.448;2023-07-20T05:15:22;6.82;;;4.88;;
14847;SDS011;7516;43.570;1.448;2023-07-20T05:17:49;5.85;;;4.63;;
14847;SDS011;7516;43.570;1.448;2023-07-20T05:20:17;6.80;;;5.03;;
14847;SDS011;7516;43.570;1.448;2023-07-20T05:22:45;7.18;;;4.50;;
14847;SDS011;7516;43.570;1.448;2023-07-20T05:25:12;7.13;;;4.43;;
14847;SDS011;7516;43.570;1.448;2023-07-20T05:27:43;7.47;;;4.43;;
14847;SDS011;7516;43.570;1.448;2023-07-20T05:30:11;7.90;;;4.97;;
14847;SDS011;7516;43.570;1.448;2023-07-20T05:32:40;7.28;;;4.70;;
14847;SDS011;7516;43.570;1.448;2023-07-20T05:35:08;7.00;;;4.55;;
14847;SDS011;7516;43.570;1.448;2023-07-20T05:37:37;6.57;;;4.72;;
14847;SDS011;7516;43.570;1.448;2023-07-20T05:40:05;8.65;;;5.32;;
14847;SDS011;7516;43.570;1.448;2023-07-20T05:42:35;9.23;;;5.18;;
14847;SDS011;7516;43.570;1.448;2023-07-20T05:45:03;7.72;;;4.85;;
14847;SDS011;7516;43.570;1.448;2023-07-20T05:47:31;8.52;;;5.10;;
14847;SDS011;7516;43.570;1.448;2023-07-20T05:50:00;10.35;;;5.10;;
14847;SDS011;7516;43.570;1.448;2023-07-20T05:52:28;6.70;;;4.80;;
14847;SDS011;7516;43.570;1.448;2023-07-20T05:54:56;8.48;;;5.07;;
14847;SDS011;7516;43.570;1.448;2023-07-20T05:57:23;8.57;;;4.78;;
14847;SDS011;7516;43.570;1.448;2023-07-20T05:59:51;7.55;;;4.25;;
14847;SDS011;7516;43.570;1.448;2023-07-20T06:02:19;5.22;;;3.58;;
14847;SDS011;7516;43.570;1.448;2023-07-20T06:04:46;4.97;;;3.85;;
14847;SDS011;7516;43.570;1.448;2023-07-20T06:07:16;4.95;;;3.30;;
14847;SDS011;7516;43.570;1.448;2023-07-20T06:09:43;6.03;;;3.70;;
14847;SDS011;7516;43.570;1.448;2023-07-20T06:12:11;4.65;;;3.53;;
14847;SDS011;7516;43.570;1.448;2023-07-20T06:14:38;4.63;;;3.22;;
14847;SDS011;7516;43.570;1.448;2023-07-20T06:17:06;5.07;;;3.45;;
14847;SDS011;7516;43.570;1.448;2023-07-20T06:19:33;4.57;;;3.15;;
14847;SDS011;7516;43.570;1.448;2023-07-20T06:22:01;4.28;;;3.20;;
14847;SDS011;7516;43.570;1.448;2023-07-20T06:24:30;6.15;;;3.42;;
14847;SDS011;7516;43.570;1.448;2023-07-20T06:26:57;6.10;;;3.47;;
14847;SDS011;7516;43.570;1.448;2023-07-20T06:29:25;5.78;;;3.47;;
14847;SDS011;7516;43.570;1.448;2023-07-20T06:31:52;6.60;;;3.47;;
14847;SDS011;7516;43.570;1.448;2023-07-20T06:34:20;4.15;;;3.30;;
14847;SDS011;7516;43.570;1.448;2023-07-20T06:36:47;6.28;;;3.55;;
14847;SDS011;7516;43.570;1.448;2023-07-20T06:39:15;5.72;;;3.47;;
14847;SDS011;7516;43.570;1.448;2023-07-20T06:41:44;4.03;;;3.25;;
14847;SDS011;7516;43.570;1.448;2023-07-20T06:44:11;5.32;;;3.13;;
14847;SDS011;7516;43.570;1.448;2023-07-20T06:46:39;6.13;;;3.05;;
14847;SDS011;7516;43.570;1.448;2023-07-20T06:49:06;4.47;;;2.90;;
14847;SDS011;7516;43.570;1.448;2023-07-20T06:51:34;3.50;;;2.83;;
14847;SDS011;7516;43.570;1.448;2023-07-20T06:54:01;6.90;;;2.88;;
14847;SDS011;7516;43.570;1.448;2023-07-20T06:56:29;6.15;;;3.20;;
14847;SDS011;7516;43.570;1.448;2023-07-20T06:58:58;3.53;;;2.50;;
14847;SDS011;7516;43.570;1.448;2023-07-20T07:01:27;3.35;;;2.20;;
14847;SDS011;7516;43.570;1.448;2023-07-20T07:03:55;5.68;;;2.88;;
14847;SDS011;7516;43.570;1.448;2023-07-20T07:06:22;3.30;;;2.08;;
14847;SDS011;7516;43.570;1.448;2023-07-20T07:08:50;5.25;;;2.80;;
14847;SDS011;7516;43.570;1.448;2023-07-20T07:11:18;3.22;;;2.30;;
14847;SDS011;7516;43.570;1.448;2023-07-20T07:13:46;2.83;;;2.00;;
14847;SDS011;7516;43.570;1.448;2023-07-20T07:16:17;3.38;;;2.28;;
14847;SDS011;7516;43.570;1.448;2023-07-20T07:18:45;5.50;;;2.33;;
14847;SDS011;7516;43.570;1.448;2023-07-20T07:21:12;5.05;;;2.30;;
14847;SDS011;7516;43.570;1.448;2023-07-20T07:23:40;3.92;;;2.78;;
14847;SDS011;7516;43.570;1.448;2023-07-20T07:26:08;3.50;;;2.20;;
14847;SDS011;7516;43.570;1.448;2023-07-20T07:28:36;2.30;;;2.00;;
14847;SDS011;7516;43.570;1.448;2023-07-20T07:31:04;6.90;;;2.58;;
14847;SDS011;7516;43.570;1.448;2023-07-20T07:33:33;3.83;;;2.35;;
14847;SDS011;7516;43.570;1.448;2023-07-20T07:36:01;4.80;;;2.60;;
14847;SDS011;7516;43.570;1.448;2023-07-20T07:38:28;3.60;;;2.28;;
14847;SDS011;7516;43.570;1.448;2023-07-20T07:40:56;5.10;;;2.20;;
14847;SDS011;7516;43.570;1.448;2023-07-20T07:43:24;9.23;;;2.13;;
14847;SDS011;7516;43.570;1.448;2023-07-20T07:45:53;5.72;;;2.20;;
14847;SDS011;7516;43.570;1.448;2023-07-20T07:48:22;2.95;;;1.85;;
14847;SDS011;7516;43.570;1.448;2023-07-20T07:50:51;2.60;;;2.05;;
14847;SDS011;7516;43.570;1.448;2023-07-20T07:53:20;2.75;;;2.08;;
14847;SDS011;7516;43.570;1.448;2023-07-20T07:55:47;3.70;;;2.10;;
14847;SDS011;7516;43.570;1.448;2023-07-20T07:58:15;3.20;;;2.05;;
14847;SDS011;7516;43.570;1.448;2023-07-20T08:00:42;3.30;;;1.80;;
14847;SDS011;7516;43.570;1.448;2023-07-20T08:03:10;3.30;;;2.15;;
14847;SDS011;7516;43.570;1.448;2023-07-20T08:05:38;3.90;;;2.38;;
14847;SDS011;7516;43.570;1.448;2023-07-20T08:08:07;4.28;;;2.17;;
14847;SDS011;7516;43.570;1.448;2023-07-20T08:10:34;3.42;;;2.22;;
14847;SDS011;7516;43.570;1.448;2023-07-20T08:13:02;5.45;;;3.13;;
14847;SDS011;7516;43.570;1.448;2023-07-20T08:15:29;2.63;;;2.00;;
14847;SDS011;7516;43.570;1.448;2023-07-20T08:17:57;3.15;;;1.95;;
14847;SDS011;7516;43.570;1.448;2023-07-20T08:20:24;4.38;;;2.15;;
14847;SDS011;7516;43.570;1.448;2023-07-20T08:22:52;5.82;;;2.38;;
14847;SDS011;7516;43.570;1.448;2023-07-20T08:25:21;3.65;;;2.05;;
14847;SDS011;7516;43.570;1.448;2023-07-20T08:27:50;4.80;;;2.40;;
14847;SDS011;7516;43.570;1.448;2023-07-20T08:30:20;15.80;;;2.83;;
14847;SDS011;7516;43.570;1.448;2023-07-20T08:32:48;3.40;;;2.10;;
14847;SDS011;7516;43.570;1.448;2023-07-20T08:35:16;3.38;;;2.80;;
14847;SDS011;7516;43.570;1.448;2023-07-20T08:37:43;11.73;;;2.50;;
14847;SDS011;7516;43.570;1.448;2023-07-20T08:40:11;3.72;;;2.20;;
14847;SDS011;7516;43.570;1.448;2023-07-20T08:42:41;3.15;;;2.22;;
14847;SDS011;7516;43.570;1.448;2023-07-20T08:45:10;3.30;;;2.22;;
14847;SDS011;7516;43.570;1.448;2023-07-20T08:47:40;3.85;;;2.10;;
14847;SDS011;7516;43.570;1.448;2023-07-20T08:50:09;4.53;;;1.85;;
14847;SDS011;7516;43.570;1.448;2023-07-20T08:52:37;3.40;;;2.30;;
14847;SDS011;7516;43.570;1.448;2023-07-20T08:55:05;3.55;;;1.95;;
14847;SDS011;7516;43.570;1.448;2023-07-20T08:57:33;5.95;;;1.80;;
14847;SDS011;7516;43.570;1.448;2023-07-20T09:00:04;6.25;;;2.65;;
14847;SDS011;7516;43.570;1.448;2023-07-20T09:02:35;3.65;;;2.00;;
14847;SDS011;7516;43.570;1.448;2023-07-20T09:05:06;3.55;;;1.90;;
14847;SDS011;7516;43.570;1.448;2023-07-20T09:07:35;2.10;;;1.60;;
14847;SDS011;7516;43.570;1.448;2023-07-20T09:10:03;3.97;;;1.90;;
14847;SDS011;7516;43.570;1.448;2023-07-20T09:12:31;3.97;;;2.13;;
14847;SDS011;7516;43.570;1.448;2023-07-20T09:15:01;3.47;;;2.05;;
14847;SDS011;7516;43.570;1.448;2023-07-20T09:17:30;5.15;;;2.28;;
14847;SDS011;7516;43.570;1.448;2023-07-20T09:19:57;4.90;;;1.73;;
14847;SDS011;7516;43.570;1.448;2023-07-20T09:22:29;2.47;;;1.85;;
14847;SDS011;7516;43.570;1.448;2023-07-20T09:24:57;3.33;;;2.00;;
14847;SDS011;7516;43.570;1.448;2023-07-20T09:27:29;4.30;;;1.80;;
14847;SDS011;7516;43.570;1.448;2023-07-20T09:30:04;4.65;;;1.70;;
14847;SDS011;7516;43.570;1.448;2023-07-20T09:32:38;4.32;;;1.95;;
14847;SDS011;7516;43.570;1.448;2023-07-20T09:35:12;5.00;;;1.90;;
14847;SDS011;7516;43.570;1.448;2023-07-20T09:37:46;3.25;;;1.90;;
14847;SDS011;7516;43.570;1.448;2023-07-20T09:40:17;5.82;;;2.00;;
14847;SDS011;7516;43.570;1.448;2023-07-20T09:42:45;5.75;;;2.03;;
14847;SDS011;7516;43.570;1.448;2023-07-20T09:45:14;3.83;;;1.80;;
14847;SDS011;7516;43.570;1.448;2023-07-20T09:47:42;3.17;;;1.77;;
14847;SDS011;7516;43.570;1.448;2023-07-20T09:50:09;4.38;;;2.00;;
14847;SDS011;7516;43.570;1.448;2023-07-20T09:52:37;2.17;;;1.92;;
14847;SDS011;7516;43.570;1.448;2023-07-20T09:55:06;5.97;;;1.88;;
14847;SDS011;7516;43.570;1.448;2023-07-20T09:57:36;4.68;;;1.83;;
14847;SDS011;7516;43.570;1.448;2023-07-20T10:00:04;5.57;;;1.70;;
14847;SDS011;7516;43.570;1.448;2023-07-20T10:02:42;4.18;;;1.90;;
14847;SDS011;7516;43.570;1.448;2023-07-20T10:05:11;3.03;;;1.73;;
14847;SDS011;7516;43.570;1.448;2023-07-20T10:07:43;4.78;;;1.73;;
14847;SDS011;7516;43.570;1.448;2023-07-20T10:10:13;3.10;;;2.10;;
14847;SDS011;7516;43.570;1.448;2023-07-20T10:12:42;4.68;;;2.20;;
14847;SDS011;7516;43.570;1.448;2023-07-20T10:15:13;2.55;;;2.10;;
14847;SDS011;7516;43.570;1.448;2023-07-20T10:20:34;5.85;;;2.00;;
14847;SDS011;7516;43.570;1.448;2023-07-20T10:23:06;3.03;;;1.85;;
14847;SDS011;7516;43.570;1.448;2023-07-20T10:25:34;3.22;;;1.90;;
14847;SDS011;7516;43.570;1.448;2023-07-20T10:28:03;5.00;;;2.17;;
14847;SDS011;7516;43.570;1.448;2023-07-20T10:30:32;3.63;;;2.10;;
14847;SDS011;7516;43.570;1.448;2023-07-20T10:33:00;4.35;;;1.85;;
14847;SDS011;7516;43.570;1.448;2023-07-20T10:35:31;4.45;;;2.30;;
14847;SDS011;7516;43.570;1.448;2023-07-20T10:38:19;5.93;;;2.20;;
14847;SDS011;7516;43.570;1.448;2023-07-20T10:41:04;4.18;;;1.85;;
14847;SDS011;7516;43.570;1.448;2023-07-20T10:43:43;4.25;;;2.10;;
14847;SDS011;7516;43.570;1.448;2023-07-20T10:46:11;4.45;;;1.95;;
14847;SDS011;7516;43.570;1.448;2023-07-20T10:51:29;4.47;;;2.58;;
14847;SDS011;7516;43.570;1.448;2023-07-20T10:54:07;5.40;;;2.22;;
14847;SDS011;7516;43.570;1.448;2023-07-20T10:56:35;3.47;;;2.22;;
14847;SDS011;7516;43.570;1.448;2023-07-20T10:59:04;3.65;;;2.10;;
14847;SDS011;7516;43.570;1.448;2023-07-20T11:01:46;3.05;;;2.10;;
14847;SDS011;7516;43.570;1.448;2023-07-20T11:04:16;3.90;;;2.38;;
14847;SDS011;7516;43.570;1.448;2023-07-20T11:06:44;6.05;;;2.60;;
14847;SDS011;7516;43.570;1.448;2023-07-20T11:09:12;4.53;;;2.10;;
14847;SDS011;7516;43.570;1.448;2023-07-20T11:11:41;3.78;;;2.30;;
14847;SDS011;7516;43.570;1.448;2023-07-20T11:14:10;3.67;;;1.98;;
14847;SDS011;7516;43.570;1.448;2023-07-20T11:16:47;3.60;;;2.15;;
14847;SDS011;7516;43.570;1.448;2023-07-20T11:19:18;4.57;;;2.47;;
14847;SDS011;7516;43.570;1.448;2023-07-20T11:21:49;3.20;;;2.00;;
14847;SDS011;7516;43.570;1.448;2023-07-20T11:24:18;5.00;;;2.65;;
14847;SDS011;7516;43.570;1.448;2023-07-20T11:26:47;5.03;;;2.47;;
14847;SDS011;7516;43.570;1.448;2023-07-20T11:29:16;6.05;;;2.33;;
14847;SDS011;7516;43.570;1.448;2023-07-20T11:31:44;3.90;;;2.20;;
14847;SDS011;7516;43.570;1.448;2023-07-20T11:34:14;4.40;;;2.60;;
14847;SDS011;7516;43.570;1.448;2023-07-20T11:36:45;4.15;;;2.30;;
14847;SDS011;7516;43.570;1.448;2023-07-20T11:39:13;3.38;;;2.33;;
14847;SDS011;7516;43.570;1.448;2023-07-20T11:41:43;5.15;;;2.40;;
14847;SDS011;7516;43.570;1.448;2023-07-20T11:44:13;4.90;;;2.28;;
14847;SDS011;7516;43.570;1.448;2023-07-20T11:46:41;4.85;;;2.38;;
14847;SDS011;7516;43.570;1.448;2023-07-20T11:49:10;4.13;;;2.00;;
14847;SDS011;7516;43.570;1.448;2023-07-20T11:51:39;4.95;;;2.20;;
14847;SDS011;7516;43.570;1.448;2023-07-20T11:54:08;6.50;;;2.65;;
14847;SDS011;7516;43.570;1.448;2023-07-20T11:56:36;4.05;;;1.80;;
14847;SDS011;7516;43.570;1.448;2023-07-20T11:59:07;2.60;;;2.35;;
14847;SDS011;7516;43.570;1.448;2023-07-20T12:01:35;2.70;;;2.30;;
14847;SDS011;7516;43.570;1.448;2023-07-20T12:04:02;5.15;;;2.42;;
14847;SDS011;7516;43.570;1.448;2023-07-20T12:06:31;3.90;;;2.53;;
14847;SDS011;7516;43.570;1.448;2023-07-20T12:08:59;4.57;;;2.30;;
14847;SDS011;7516;43.570;1.448;2023-07-20T12:11:31;4.97;;;2.25;;
14847;SDS011;7516;43.570;1.448;2023-07-20T12:14:00;4.93;;;2.15;;
14847;SDS011;7516;43.570;1.448;2023-07-20T12:16:29;5.72;;;2.28;;
14847;SDS011;7516;43.570;1.448;2023-07-20T12:19:00;4.50;;;2.15;;
14847;SDS011;7516;43.570;1.448;2023-07-20T12:21:28;5.95;;;2.50;;
14847;SDS011;7516;43.570;1.448;2023-07-20T12:23:56;5.15;;;2.50;;
14847;SDS011;7516;43.570;1.448;2023-07-20T12:26:24;3.53;;;2.00;;
14847;SDS011;7516;43.570;1.448;2023-07-20T12:28:54;6.47;;;2.40;;
14847;SDS011;7516;43.570;1.448;2023-07-20T12:31:21;3.95;;;2.50;;
14847;SDS011;7516;43.570;1.448;2023-07-20T12:33:49;2.92;;;2.20;;
14847;SDS011;7516;43.570;1.448;2023-07-20T12:36:18;3.38;;;2.25;;
14847;SDS011;7516;43.570;1.448;2023-07-20T12:38:45;4.78;;;1.83;;
14847;SDS011;7516;43.570;1.448;2023-07-20T12:41:13;2.72;;;2.00;;
14847;SDS011;7516;43.570;1.448;2023-07-20T12:43:41;4.15;;;2.40;;
14847;SDS011;7516;43.570;1.448;2023-07-20T12:46:11;3.50;;;2.40;;
14847;SDS011;7516;43.570;1.448;2023-07-20T12:48:39;3.67;;;2.22;;
14847;SDS011;7516;43.570;1.448;2023-07-20T12:51:07;5.07;;;2.50;;
14847;SDS011;7516;43.570;1.448;2023-07-20T12:53:35;6.88;;;2.42;;
14847;SDS011;7516;43.570;1.448;2023-07-20T12:56:03;5.20;;;2.20;;
14847;SDS011;7516;43.570;1.448;2023-07-20T12:58:31;2.38;;;1.90;;
14847;SDS011;7516;43.570;1.448;2023-07-20T13:00:58;2.95;;;2.10;;
14847;SDS011;7516;43.570;1.448;2023-07-20T13:03:27;5.72;;;2.20;;
14847;SDS011;7516;43.570;1.448;2023-07-20T13:05:55;4.15;;;2.28;;
14847;SDS011;7516;43.570;1.448;2023-07-20T13:08:23;4.57;;;2.22;;
14847;SDS011;7516;43.570;1.448;2023-07-20T13:10:52;2.95;;;1.92;;
14847;SDS011;7516;43.570;1.448;2023-07-20T13:13:19;3.63;;;2.50;;
14847;SDS011;7516;43.570;1.448;2023-07-20T13:15:47;3.25;;;2.30;;
14847;SDS011;7516;43.570;1.448;2023-07-20T13:18:15;4.60;;;2.13;;
14847;SDS011;7516;43.570;1.448;2023-07-20T13:20:44;3.58;;;2.30;;
14847;SDS011;7516;43.570;1.448;2023-07-20T13:23:12;5.15;;;2.10;;
14847;SDS011;7516;43.570;1.448;2023-07-20T13:25:39;3.63;;;2.40;;
14847;SDS011;7516;43.570;1.448;2023-07-20T13:28:07;6.22;;;2.58;;
14847;SDS011;7516;43.570;1.448;2023-07-20T13:30:35;3.90;;;2.10;;
14847;SDS011;7516;43.570;1.448;2023-07-20T13:33:02;4.53;;;2.35;;
14847;SDS011;7516;43.570;1.448;2023-07-20T13:35:30;2.92;;;2.00;;
14847;SDS011;7516;43.570;1.448;2023-07-20T13:37:59;2.85;;;2.20;;
14847;SDS011;7516;43.570;1.448;2023-07-20T13:40:26;4.43;;;2.20;;
14847;SDS011;7516;43.570;1.448;2023-07-20T13:42:53;6.97;;;2.30;;
14847;SDS011;7516;43.570;1.448;2023-07-20T13:45:21;3.72;;;2.45;;
14847;SDS011;7516;43.570;1.448;2023-07-20T13:47:49;4.10;;;2.00;;
14847;SDS011;7516;43.570;1.448;2023-07-20T13:50:16;4.13;;;2.17;;
14847;SDS011;7516;43.570;1.448;2023-07-20T13:52:44;3.38;;;2.00;;
14847;SDS011;7516;43.570;1.448;2023-07-20T13:55:13;3.08;;;2.03;;
14847;SDS011;7516;43.570;1.448;2023-07-20T13:57:40;3.67;;;1.88;;
14847;SDS011;7516;43.570;1.448;2023-07-20T14:00:08;3.03;;;1.92;;
14847;SDS011;7516;43.570;1.448;2023-07-20T14:02:37;2.40;;;1.90;;
14847;SDS011;7516;43.570;1.448;2023-07-20T14:05:04;3.95;;;2.20;;
14847;SDS011;7516;43.570;1.448;2023-07-20T14:07:33;4.88;;;2.33;;
14847;SDS011;7516;43.570;1.448;2023-07-20T14:10:01;2.58;;;2.00;;
14847;SDS011;7516;43.570;1.448;2023-07-20T14:12:30;3.75;;;2.28;;
14847;SDS011;7516;43.570;1.448;2023-07-20T14:14:57;3.08;;;2.10;;
14847;SDS011;7516;43.570;1.448;2023-07-20T14:17:24;3.63;;;2.30;;
14847;SDS011;7516;43.570;1.448;2023-07-20T14:19:52;3.00;;;2.15;;
14847;SDS011;7516;43.570;1.448;2023-07-20T14:22:20;3.25;;;2.20;;
14847;SDS011;7516;43.570;1.448;2023-07-20T14:24:48;2.92;;;2.40;;
14847;SDS011;7516;43.570;1.448;2023-07-20T14:27:15;5.15;;;1.92;;
14847;SDS011;7516;43.570;1.448;2023-07-20T14:29:44;2.67;;;2.00;;
14847;SDS011;7516;43.570;1.448;2023-07-20T14:32:12;2.63;;;2.22;;
14847;SDS011;7516;43.570;1.448;2023-07-20T14:34:39;2.97;;;1.85;;
14847;SDS011;7516;43.570;1.448;2023-07-20T14:37:06;2.38;;;1.70;;
14847;SDS011;7516;43.570;1.448;2023-07-20T14:39:34;4.00;;;2.03;;
14847;SDS011;7516;43.570;1.448;2023-07-20T14:42:01;3.00;;;2.58;;
14847;SDS011;7516;43.570;1.448;2023-07-20T14:44:29;3.80;;;2.30;;
14847;SDS011;7516;43.570;1.448;2023-07-20T14:47:01;2.60;;;2.10;;
14847;SDS011;7516;43.570;1.448;2023-07-20T14:49:28;3.85;;;2.13;;
14847;SDS011;7516;43.570;1.448;2023-07-20T14:51:56;2.88;;;2.13;;
14847;SDS011;7516;43.570;1.448;2023-07-20T14:54:23;2.90;;;2.25;;
14847;SDS011;7516;43.570;1.448;2023-07-20T14:56:51;3.05;;;2.25;;
14847;SDS011;7516;43.570;1.448;2023-07-20T14:59:19;3.72;;;2.30;;
14847;SDS011;7516;43.570;1.448;2023-07-20T15:01:46;4.35;;;2.65;;
14847;SDS011;7516;43.570;1.448;2023-07-20T15:04:15;3.40;;;2.00;;
14847;SDS011;7516;43.570;1.448;2023-07-20T15:06:43;3.50;;;2.13;;
14847;SDS011;7516;43.570;1.448;2023-07-20T15:09:10;3.03;;;1.98;;
14847;SDS011;7516;43.570;1.448;2023-07-20T15:11:38;4.30;;;2.05;;
14847;SDS011;7516;43.570;1.448;2023-07-20T15:14:05;3.10;;;2.40;;
14847;SDS011;7516;43.570;1.448;2023-07-20T15:16:33;3.40;;;2.10;;
14847;SDS011;7516;43.570;1.448;2023-07-20T15:19:02;2.78;;;2.28;;